createdAt,value
2023-01-09T00:00:59.466Z,98792.41
2023-01-09T00:03:26.452Z,98786.78
2023-01-09T00:05:53.746Z,98780.75
2023-01-09T00:08:20.646Z,98782.97
2023-01-09T00:10:50.169Z,98789.97
2023-01-09T00:13:18.153Z,98786.81
2023-01-09T00:15:45.596Z,98780.34
2023-01-09T00:18:12.470Z,98786.69
2023-01-09T00:20:39.301Z,98783.94
2023-01-09T00:23:06.306Z,98778.91
2023-01-09T00:25:33.635Z,98775.16
2023-01-09T00:28:00.446Z,98775.16
2023-01-09T00:30:27.798Z,98760.22
2023-01-09T00:32:55.778Z,98771.31
2023-01-09T00:35:25.881Z,98764.63
2023-01-09T00:37:52.815Z,98754.22
2023-01-09T00:40:20.795Z,98744.91
2023-01-09T00:42:54.515Z,98753.66
2023-01-09T00:45:29.073Z,98757.91
2023-01-09T00:48:03.800Z,98750.78
2023-01-09T00:50:33.422Z,98768.31
2023-01-09T00:53:08.313Z,98756.94
2023-01-09T00:55:37.373Z,98759.69
2023-01-09T00:58:04.425Z,98761.34
2023-01-09T01:00:31.543Z,98759.78
2023-01-09T01:02:58.630Z,98754.56
2023-01-09T01:05:43.949Z,98762.91
2023-01-09T01:08:18.259Z,98766.88
2023-01-09T01:10:46.772Z,98766.19
2023-01-09T01:13:13.916Z,98764.09
2023-01-09T01:15:43.183Z,98769.47
2023-01-09T01:18:11.639Z,98763.00
2023-01-09T01:20:42.343Z,98769.97
2023-01-09T01:23:09.564Z,98768.19
2023-01-09T01:25:41.715Z,98762.59
2023-01-09T01:28:10.271Z,98760.38
2023-01-09T01:30:42.206Z,98771.91
2023-01-09T01:33:10.816Z,98770.81
2023-01-09T01:35:37.972Z,98776.41
2023-01-09T01:38:05.068Z,98775.41
2023-01-09T01:40:32.287Z,98773.78
2023-01-09T01:42:59.209Z,98773.91
2023-01-09T01:45:30.204Z,98777.78
2023-01-09T01:48:04.733Z,98781.50
2023-01-09T01:51:02.418Z,98786.69
2023-01-09T01:53:58.813Z,98794.75
2023-01-09T01:56:28.395Z,98798.00
2023-01-09T01:59:16.388Z,98794.81
2023-01-09T02:01:47.412Z,98803.00
2023-01-09T02:04:14.692Z,98801.75
2023-01-09T02:06:42.621Z,98797.53
2023-01-09T02:09:13.262Z,98803.53
2023-01-09T02:11:46.150Z,98805.34
2023-01-09T02:14:13.803Z,98796.41
2023-01-09T02:17:07.662Z,98797.06
2023-01-09T02:20:18.697Z,98804.28
2023-01-09T02:23:12.167Z,98798.75
2023-01-09T02:25:44.711Z,98803.97
2023-01-09T02:28:23.293Z,98811.66
2023-01-09T02:31:42.346Z,98819.81
2023-01-09T02:34:25.080Z,98813.50
2023-01-09T02:37:32.448Z,98816.09
2023-01-09T02:40:15.518Z,98830.78
2023-01-09T02:42:44.305Z,98822.16
2023-01-09T02:45:11.099Z,98837.78
2023-01-09T02:47:45.217Z,98838.88
2023-01-09T02:50:42.690Z,98840.97
2023-01-09T02:53:32.705Z,98850.84
2023-01-09T02:56:58.179Z,98854.44
2023-01-09T02:59:39.897Z,98846.84
2023-01-09T03:02:36.406Z,98837.38
2023-01-09T03:05:18.019Z,98846.84
2023-01-09T03:08:03.501Z,98861.13
2023-01-09T03:10:40.250Z,98859.63
2023-01-09T03:13:12.275Z,98858.78
2023-01-09T03:15:41.826Z,98854.25
2023-01-09T03:18:11.865Z,98869.75
2023-01-09T03:20:39.692Z,98874.66
2023-01-09T03:23:08.376Z,98881.19
2023-01-09T03:25:35.303Z,98884.63
2023-01-09T03:28:18.018Z,98878.00
2023-01-09T03:30:44.956Z,98872.34
2023-01-09T03:33:11.911Z,98893.75
2023-01-09T03:35:38.866Z,98895.22
2023-01-09T03:38:07.277Z,98900.56
2023-01-09T03:40:34.879Z,98909.06
2023-01-09T03:43:01.763Z,98905.66
2023-01-09T03:45:28.609Z,98895.34
2023-01-09T03:47:58.403Z,98903.16
2023-01-09T03:50:25.289Z,98909.06
2023-01-09T03:52:52.358Z,98920.28
2023-01-09T03:55:19.216Z,98937.69
2023-01-09T03:57:46.039Z,98939.50
2023-01-09T04:00:13.834Z,98936.91
2023-01-09T04:02:40.685Z,98947.00
2023-01-09T04:05:08.297Z,98956.75
2023-01-09T04:07:35.297Z,98959.38
2023-01-09T04:10:02.164Z,98970.78
2023-01-09T04:12:28.996Z,98975.97
2023-01-09T04:14:55.835Z,98981.72
2023-01-09T04:17:22.710Z,99001.72
2023-01-09T04:19:50.719Z,99005.31
2023-01-09T04:22:17.603Z,99015.19
2023-01-09T04:24:44.400Z,99025.22
2023-01-09T04:27:12.257Z,99030.72
2023-01-09T04:29:39.178Z,99048.09
2023-01-09T04:32:06.155Z,99054.97
2023-01-09T04:34:33.067Z,99061.97
2023-01-09T04:36:59.893Z,99059.50
2023-01-09T04:39:26.725Z,99076.75
2023-01-09T04:41:53.579Z,99067.16
2023-01-09T04:44:28.736Z,99072.53
2023-01-09T04:46:59.110Z,99064.56
2023-01-09T04:49:26.365Z,99071.03
2023-01-09T04:51:53.262Z,99063.38
2023-01-09T04:54:20.696Z,99075.41
2023-01-09T04:56:47.810Z,99075.56
2023-01-09T04:59:15.028Z,99085.81
2023-01-09T05:01:42.026Z,99083.22
2023-01-09T05:04:09.267Z,99093.78
2023-01-09T05:06:36.180Z,99092.13
2023-01-09T05:09:03.438Z,99099.94
2023-01-09T05:11:30.346Z,99104.34
2023-01-09T05:13:57.340Z,99109.00
2023-01-09T05:16:24.345Z,99113.69
2023-01-09T05:18:56.413Z,99116.00
2023-01-09T05:21:24.588Z,99133.41
2023-01-09T05:23:51.600Z,99141.50
2023-01-09T05:26:23.818Z,99129.72
2023-01-09T05:28:52.410Z,99129.31
2023-01-09T05:31:20.502Z,99153.72
2023-01-09T05:33:47.379Z,99150.28
2023-01-09T05:36:14.755Z,99141.78
2023-01-09T05:38:41.616Z,99145.91
2023-01-09T05:41:08.946Z,99137.28
2023-01-09T05:43:35.846Z,99137.44
2023-01-09T05:46:03.066Z,99147.44
2023-01-09T05:48:29.950Z,99150.72
2023-01-09T05:50:58.870Z,99162.34
2023-01-09T05:53:25.716Z,99182.47
2023-01-09T05:55:52.531Z,99179.06
2023-01-09T05:58:19.405Z,99194.41
2023-01-09T06:00:46.296Z,99206.44
2023-01-09T06:03:13.186Z,99202.59
2023-01-09T06:05:40.370Z,99205.91
2023-01-09T06:08:07.286Z,99203.84
2023-01-09T06:10:34.114Z,99204.13
2023-01-09T06:13:00.944Z,99207.66
2023-01-09T06:15:27.914Z,99209.03
2023-01-09T06:17:54.899Z,99219.44
2023-01-09T06:20:21.781Z,99216.16
2023-01-09T06:22:51.891Z,99222.19
2023-01-09T06:25:18.980Z,99229.06
2023-01-09T06:27:45.902Z,99221.25
2023-01-09T06:30:13.142Z,99219.84
2023-01-09T06:32:40.047Z,99215.88
2023-01-09T06:35:07.272Z,99219.72
2023-01-09T06:37:34.231Z,99217.81
2023-01-09T06:40:01.043Z,99227.66
2023-01-09T06:42:27.894Z,99232.06
2023-01-09T06:44:54.772Z,99232.31
2023-01-09T06:47:21.755Z,99222.97
2023-01-09T06:49:48.569Z,99231.47
2023-01-09T06:52:15.556Z,99229.81
2023-01-09T06:54:42.356Z,99233.53
2023-01-09T06:57:09.395Z,99236.66
2023-01-09T06:59:36.964Z,99239.97
2023-01-09T07:02:03.945Z,99248.72
2023-01-09T07:04:30.805Z,99248.72
2023-01-09T07:06:57.669Z,99243.94
2023-01-09T07:09:24.540Z,99246.09
2023-01-09T07:11:51.376Z,99229.66
2023-01-09T07:14:18.211Z,99245.13
2023-01-09T07:16:45.043Z,99253.75
2023-01-09T07:19:11.975Z,99238.00
2023-01-09T07:21:38.814Z,99242.97
2023-01-09T07:24:05.953Z,99238.59
2023-01-09T07:26:32.778Z,99234.75
2023-01-09T07:28:59.633Z,99238.72
2023-01-09T07:31:26.689Z,99242.56
2023-01-09T07:33:53.683Z,99243.38
2023-01-09T07:36:20.690Z,99248.44
2023-01-09T07:38:47.521Z,99249.13
2023-01-09T07:41:14.484Z,99237.91
2023-01-09T07:43:41.303Z,99243.78
2023-01-09T07:46:08.266Z,99251.22
2023-01-09T07:48:35.169Z,99263.56
2023-01-09T07:51:02.379Z,99273.44
2023-01-09T07:53:29.392Z,99267.13
2023-01-09T07:55:56.195Z,99260.28
2023-01-09T07:58:23.110Z,99267.00
2023-01-09T08:00:51.231Z,99271.13
2023-01-09T08:03:18.145Z,99271.50
2023-01-09T08:05:45.943Z,99272.88
2023-01-09T08:08:14.856Z,99272.88
2023-01-09T08:10:41.771Z,99264.94
2023-01-09T08:13:08.720Z,99262.06
2023-01-09T08:15:35.595Z,99278.91
2023-01-09T08:18:02.517Z,99262.72
2023-01-09T08:20:29.492Z,99260.03
2023-01-09T08:22:56.823Z,99265.09
2023-01-09T08:25:23.856Z,99266.72
2023-01-09T08:27:50.934Z,99267.13
2023-01-09T08:30:18.779Z,99279.84
2023-01-09T08:32:51.660Z,99268.75
2023-01-09T08:35:19.386Z,99284.63
2023-01-09T08:37:48.154Z,99285.72
2023-01-09T08:40:16.972Z,99288.84
2023-01-09T08:43:03.350Z,99284.34
2023-01-09T08:45:50.429Z,99296.66
2023-01-09T08:48:17.322Z,99300.78
2023-01-09T08:50:44.664Z,99298.03
2023-01-09T08:53:12.121Z,99296.69
2023-01-09T08:55:39.381Z,99303.84
2023-01-09T08:58:06.277Z,99296.50
2023-01-09T09:00:33.160Z,99287.31
2023-01-09T09:03:01.669Z,99296.25
2023-01-09T09:05:30.919Z,99286.75
2023-01-09T09:07:58.908Z,99295.94
2023-01-09T09:10:29.097Z,99295.38
2023-01-09T09:12:58.587Z,99294.75
2023-01-09T09:15:27.525Z,99298.16
2023-01-09T09:17:56.825Z,99308.00
2023-01-09T09:20:27.523Z,99306.13
2023-01-09T09:22:54.542Z,99301.97
2023-01-09T09:25:22.181Z,99301.13
2023-01-09T09:27:49.520Z,99315.25
2023-01-09T09:30:18.986Z,99305.78
2023-01-09T09:32:46.605Z,99314.94
2023-01-09T09:35:13.517Z,99320.72
2023-01-09T09:37:41.948Z,99323.03
2023-01-09T09:40:20.421Z,99311.81
2023-01-09T09:43:43.284Z,99316.88
2023-01-09T09:46:41.780Z,99309.56
2023-01-09T09:49:50.447Z,99308.06
2023-01-09T09:52:29.779Z,99297.38
2023-01-09T09:55:01.324Z,99299.97
2023-01-09T09:57:36.491Z,99308.06
2023-01-09T10:00:06.116Z,99314.78
2023-01-09T10:02:51.552Z,99324.06
2023-01-09T10:05:34.567Z,99325.38
2023-01-09T10:08:16.271Z,99331.84
2023-01-09T10:10:56.247Z,99331.63
2023-01-09T10:13:43.801Z,99328.19
2023-01-09T10:16:21.215Z,99321.19
2023-01-09T10:18:59.926Z,99329.00
2023-01-09T10:21:40.584Z,99336.53
2023-01-09T10:24:28.944Z,99328.84
2023-01-09T10:26:58.290Z,99325.44
2023-01-09T10:30:19.928Z,99327.09
2023-01-09T10:32:49.441Z,99328.31
2023-01-09T10:36:12.507Z,99334.50
2023-01-09T10:38:45.255Z,99334.75
2023-01-09T10:41:24.999Z,99337.91
2023-01-09T10:44:06.217Z,99332.97
2023-01-09T10:46:43.888Z,99334.47
2023-01-09T10:49:17.844Z,99333.25
2023-01-09T10:51:57.189Z,99330.22
2023-01-09T10:54:24.738Z,99328.16
2023-01-09T10:57:06.467Z,99330.25
2023-01-09T10:59:33.362Z,99324.31
2023-01-09T11:02:01.549Z,99319.13
2023-01-09T11:04:36.326Z,99321.47
2023-01-09T11:07:19.897Z,99325.16
2023-01-09T11:09:58.883Z,99333.25
2023-01-09T11:12:34.082Z,99332.31
2023-01-09T11:15:16.345Z,99344.50
2023-01-09T11:17:43.869Z,99342.97
2023-01-09T11:20:27.134Z,99345.44
2023-01-09T11:22:57.976Z,99345.00
2023-01-09T11:25:28.989Z,99342.75
2023-01-09T11:28:01.723Z,99347.16
2023-01-09T11:30:36.221Z,99345.13
2023-01-09T11:33:15.922Z,99335.38
2023-01-09T11:36:07.884Z,99334.59
2023-01-09T11:38:54.752Z,99338.28
2023-01-09T11:41:26.407Z,99344.75
2023-01-09T11:43:57.495Z,99337.34
2023-01-09T11:46:43.936Z,99332.00
2023-01-09T11:49:19.700Z,99340.09
2023-01-09T11:51:46.693Z,99330.19
2023-01-09T11:54:26.241Z,99325.66
2023-01-09T11:56:53.593Z,99328.81
2023-01-09T11:59:25.728Z,99325.50
2023-01-09T12:02:16.453Z,99339.63
2023-01-09T12:04:56.910Z,99333.81
2023-01-09T12:07:43.205Z,99338.19
2023-01-09T12:10:53.340Z,99333.41
2023-01-09T12:13:59.606Z,99331.47
2023-01-09T12:16:43.243Z,99326.09
2023-01-09T12:19:42.660Z,99332.28
2023-01-09T12:22:27.379Z,99327.09
2023-01-09T12:25:18.784Z,99329.00
2023-01-09T12:28:28.130Z,99328.00
2023-01-09T12:31:35.974Z,99333.22
2023-01-09T12:34:38.256Z,99336.06
2023-01-09T12:37:34.195Z,99336.34
2023-01-09T12:40:23.396Z,99336.88
2023-01-09T12:43:26.943Z,99335.66
2023-01-09T12:46:18.728Z,99337.75
2023-01-09T12:49:24.242Z,99349.13
2023-01-09T12:52:20.546Z,99345.44
2023-01-09T12:54:54.388Z,99363.13
2023-01-09T12:57:56.075Z,99360.00
2023-01-09T13:00:35.586Z,99355.38
2023-01-09T13:03:36.940Z,99349.38
2023-01-09T13:06:10.893Z,99350.63
2023-01-09T13:08:42.540Z,99344.06
2023-01-09T13:11:22.144Z,99339.69
2023-01-09T13:14:11.449Z,99329.94
2023-01-09T13:16:43.791Z,99340.91
2023-01-09T13:19:27.810Z,99343.09
2023-01-09T13:21:56.174Z,99349.28
2023-01-09T13:24:48.620Z,99357.25
2023-01-09T13:27:23.139Z,99360.78
2023-01-09T13:30:26.367Z,99354.53
2023-01-09T13:33:17.213Z,99357.00
2023-01-09T13:35:53.933Z,99359.72
2023-01-09T13:38:27.383Z,99365.06
2023-01-09T13:41:32.937Z,99371.38
2023-01-09T13:44:07.730Z,99363.41
2023-01-09T13:46:43.265Z,99366.53
2023-01-09T13:49:52.917Z,99367.22
2023-01-09T13:52:41.287Z,99369.56
2023-01-09T13:55:15.007Z,99368.31
2023-01-09T13:58:08.532Z,99371.75
2023-01-09T14:00:35.203Z,99376.03
2023-01-09T14:03:32.845Z,99379.88
2023-01-09T14:05:59.736Z,99379.06
2023-01-09T14:08:32.445Z,99384.16
2023-01-09T14:11:02.226Z,99392.53
2023-01-09T14:13:38.319Z,99380.56
2023-01-09T14:16:09.265Z,99393.06
2023-01-09T14:18:40.307Z,99400.34
2023-01-09T14:21:11.207Z,99407.34
2023-01-09T14:23:54.566Z,99420.38
2023-01-09T14:26:56.673Z,99409.69
2023-01-09T14:29:45.334Z,99419.00
2023-01-09T14:32:26.030Z,99419.84
2023-01-09T14:35:08.153Z,99415.56
2023-01-09T14:37:37.941Z,99414.88
2023-01-09T14:40:29.264Z,99424.75
2023-01-09T14:43:04.220Z,99433.50
2023-01-09T14:45:33.446Z,99438.47
2023-01-09T14:48:06.359Z,99439.69
2023-01-09T14:50:36.788Z,99436.09
2023-01-09T14:53:13.263Z,99438.84
2023-01-09T14:55:57.584Z,99452.28
2023-01-09T14:58:34.255Z,99454.75
2023-01-09T15:01:18.947Z,99461.84
2023-01-09T15:03:59.418Z,99465.53
2023-01-09T15:06:31.171Z,99468.41
2023-01-09T15:09:22.265Z,99476.50
2023-01-09T15:11:49.683Z,99484.59
2023-01-09T15:14:41.546Z,99484.84
2023-01-09T15:17:23.303Z,99488.09
2023-01-09T15:19:50.509Z,99490.41
2023-01-09T15:22:30.645Z,99498.47
2023-01-09T15:24:59.056Z,99498.72
2023-01-09T15:27:26.495Z,99493.78
2023-01-09T15:29:53.471Z,99506.13
2023-01-09T15:32:28.655Z,99511.56
2023-01-09T15:34:57.320Z,99518.69
2023-01-09T15:37:38.933Z,99530.19
2023-01-09T15:40:21.853Z,99542.50
2023-01-09T15:42:58.016Z,99536.97
2023-01-09T15:45:40.432Z,99539.97
2023-01-09T15:48:23.392Z,99536.66
2023-01-09T15:50:57.939Z,99546.00
2023-01-09T15:53:27.752Z,99551.19
2023-01-09T15:56:23.911Z,99552.03
2023-01-09T15:58:52.812Z,99538.88
2023-01-09T16:01:40.211Z,99550.50
2023-01-09T16:04:16.776Z,99550.88
2023-01-09T16:06:50.519Z,99562.50
2023-01-09T16:09:27.815Z,99560.97
2023-01-09T16:11:58.892Z,99568.06
2023-01-09T16:14:34.560Z,99570.81
2023-01-09T16:17:12.719Z,99572.59
2023-01-09T16:19:58.333Z,99578.63
2023-01-09T16:22:30.319Z,99587.50
2023-01-09T16:25:20.198Z,99588.91
2023-01-09T16:28:30.631Z,99588.91
2023-01-09T16:31:08.257Z,99587.25
2023-01-09T16:33:35.346Z,99588.91
2023-01-09T16:36:04.893Z,99591.50
2023-01-09T16:38:31.701Z,99594.09
2023-01-09T16:41:26.167Z,99594.38
2023-01-09T16:43:53.171Z,99597.19
2023-01-09T16:46:21.270Z,99598.41
2023-01-09T16:48:48.643Z,99610.47
2023-01-09T16:51:20.699Z,99619.22
2023-01-09T16:53:48.894Z,99623.59
2023-01-09T16:56:22.048Z,99629.63
2023-01-09T16:58:49.371Z,99633.75
2023-01-09T17:01:16.669Z,99642.25
2023-01-09T17:03:44.237Z,99644.72
2023-01-09T17:06:29.384Z,99658.56
2023-01-09T17:08:56.972Z,99666.50
2023-01-09T17:11:32.888Z,99660.72
2023-01-09T17:14:01.226Z,99671.94
2023-01-09T17:16:29.565Z,99668.66
2023-01-09T17:18:56.598Z,99672.44
2023-01-09T17:21:26.828Z,99677.66
2023-01-09T17:24:12.208Z,99682.38
2023-01-09T17:27:01.567Z,99684.97
2023-01-09T17:29:30.008Z,99694.13
2023-01-09T17:31:58.011Z,99696.16
2023-01-09T17:34:24.876Z,99704.88
2023-01-09T17:36:52.728Z,99715.41
2023-01-09T17:39:19.624Z,99714.56
2023-01-09T17:41:46.437Z,99726.16
2023-01-09T17:44:13.325Z,99725.69
2023-01-09T17:46:43.465Z,99737.97
2023-01-09T17:49:21.260Z,99750.06
2023-01-09T17:51:48.600Z,99753.59
2023-01-09T17:54:15.719Z,99755.72
2023-01-09T17:56:50.729Z,99755.72
2023-01-09T17:59:18.159Z,99772.63
2023-01-09T18:01:45.569Z,99774.38
2023-01-09T18:04:12.834Z,99773.69
2023-01-09T18:06:39.710Z,99791.16
2023-01-09T18:09:07.634Z,99789.53
2023-01-09T18:11:34.951Z,99791.63
2023-01-09T18:14:02.050Z,99791.63
2023-01-09T18:16:29.047Z,99795.41
2023-01-09T18:18:58.889Z,99803.22
2023-01-09T18:21:28.088Z,99804.16
2023-01-09T18:23:56.218Z,99820.00
2023-01-09T18:26:23.162Z,99811.22
2023-01-09T18:28:59.091Z,99826.59
2023-01-09T18:31:28.095Z,99830.13
2023-01-09T18:33:58.179Z,99848.34
2023-01-09T18:36:30.611Z,99853.44
2023-01-09T18:39:03.677Z,99861.09
2023-01-09T18:41:31.491Z,99869.63
2023-01-09T18:44:00.425Z,99869.88
2023-01-09T18:46:31.801Z,99874.09
2023-01-09T18:49:01.705Z,99880.13
2023-01-09T18:51:29.587Z,99881.31
2023-01-09T18:53:57.038Z,99888.50
2023-01-09T18:56:24.798Z,99895.09
2023-01-09T18:58:59.401Z,99890.94
2023-01-09T19:01:28.895Z,99899.66
2023-01-09T19:03:57.868Z,99904.97
2023-01-09T19:06:25.578Z,99897.28
2023-01-09T19:08:52.473Z,99911.72
2023-01-09T19:11:19.339Z,99913.31
2023-01-09T19:13:46.217Z,99914.72
2023-01-09T19:16:13.898Z,99913.78
2023-01-09T19:18:42.073Z,99924.88
2023-01-09T19:21:15.203Z,99927.72
2023-01-09T19:23:43.909Z,99935.53
2023-01-09T19:26:21.493Z,99937.28
2023-01-09T19:28:48.447Z,99945.28
2023-01-09T19:31:16.088Z,99943.53
2023-01-09T19:33:44.569Z,99944.16
2023-01-09T19:36:11.750Z,99949.22
2023-01-09T19:38:38.944Z,99948.28
2023-01-09T19:41:14.187Z,99948.06
2023-01-09T19:43:46.027Z,99943.44
2023-01-09T19:46:15.750Z,99951.16
2023-01-09T19:48:42.852Z,99953.75
2023-01-09T19:51:11.238Z,99958.00
2023-01-09T19:53:38.580Z,99964.03
2023-01-09T19:56:12.508Z,99977.38
2023-01-09T19:58:40.736Z,99985.16
2023-01-09T20:01:13.935Z,99987.56
2023-01-09T20:03:47.135Z,99986.47
2023-01-09T20:06:18.999Z,99985.75
2023-01-09T20:08:47.697Z,99992.97
2023-01-09T20:11:15.623Z,99999.22
2023-01-09T20:13:43.239Z,99998.63
2023-01-09T20:16:22.586Z,100002.25
2023-01-09T20:18:49.670Z,99999.53
2023-01-09T20:23:51.217Z,100008.78
2023-01-09T20:26:18.983Z,100013.75
2023-01-09T20:28:46.867Z,100017.06
2023-01-09T20:31:16.679Z,100023.09
2023-01-09T20:33:44.479Z,100022.16
2023-01-09T20:36:11.416Z,100020.06
2023-01-09T20:38:39.838Z,100019.13
2023-01-09T20:41:22.368Z,100022.53
2023-01-09T20:44:04.823Z,100019.84
2023-01-09T20:46:37.840Z,100024.34
2023-01-09T20:49:07.461Z,100025.38
2023-01-09T20:51:42.627Z,100025.97
2023-01-09T20:54:09.952Z,100032.00
2023-01-09T20:56:36.795Z,100037.81
2023-01-09T20:59:06.144Z,100045.94
2023-01-09T21:01:34.468Z,100040.84
2023-01-09T21:04:02.988Z,100041.69
2023-01-09T21:06:29.923Z,100045.00
2023-01-09T21:08:56.943Z,100050.81
2023-01-09T21:11:24.155Z,100054.75
2023-01-09T21:13:51.825Z,100059.94
2023-01-09T21:16:23.989Z,100064.78
2023-01-09T21:18:51.898Z,100069.66
2023-01-09T21:21:24.443Z,100071.47
2023-01-09T21:23:57.950Z,100074.78
2023-01-09T21:26:28.943Z,100078.91
2023-01-09T21:28:58.423Z,100088.25
2023-01-09T21:31:34.023Z,100086.63
2023-01-09T21:34:07.243Z,100089.22
2023-01-09T21:36:35.308Z,100094.50
2023-01-09T21:39:02.518Z,100096.31
2023-01-09T21:41:48.117Z,100105.97
2023-01-09T21:44:33.330Z,100108.06
2023-01-09T21:47:02.585Z,100107.25
2023-01-09T21:49:34.682Z,100107.25
2023-01-09T21:52:04.014Z,100111.50
2023-01-09T21:54:31.589Z,100107.03
2023-01-09T21:56:59.246Z,100117.44
2023-01-09T21:59:26.394Z,100116.38
2023-01-09T22:01:53.304Z,100125.13
2023-01-09T22:04:25.555Z,100133.88
2023-01-09T22:06:52.443Z,100138.13
2023-01-09T22:09:19.331Z,100144.16
2023-01-09T22:11:46.203Z,100145.81
2023-01-09T22:14:16.297Z,100147.34
2023-01-09T22:16:44.994Z,100156.94
2023-01-09T22:19:18.945Z,100167.31
2023-01-09T22:21:46.505Z,100168.28
2023-01-09T22:24:16.875Z,100164.97
2023-01-09T22:26:44.650Z,100170.03
2023-01-09T22:29:11.492Z,100176.09
2023-01-09T22:31:39.672Z,100183.78
2023-01-09T22:34:07.221Z,100182.00
2023-01-09T22:36:34.120Z,100188.13
2023-01-09T22:39:01.295Z,100201.13
2023-01-09T22:41:29.782Z,100201.38
2023-01-09T22:43:56.806Z,100205.75
2023-01-09T22:46:23.841Z,100208.22
2023-01-09T22:48:50.746Z,100206.47
2023-01-09T22:51:20.379Z,100212.50
2023-01-09T22:53:47.603Z,100216.88
2023-01-09T22:56:21.441Z,100208.13
2023-01-09T22:58:53.396Z,100213.53
2023-01-09T23:01:21.324Z,100225.22
2023-01-09T23:03:48.865Z,100229.69
2023-01-09T23:06:18.798Z,100234.06
2023-01-09T23:08:46.378Z,100241.97
2023-01-09T23:11:40.283Z,100241.25
2023-01-09T23:14:07.125Z,100248.31
2023-01-09T23:16:34.004Z,100240.72
2023-01-09T23:19:00.977Z,100247.81
2023-01-09T23:21:27.859Z,100248.72
2023-01-09T23:23:54.701Z,100253.44
2023-01-09T23:26:21.605Z,100254.59
2023-01-09T23:28:48.496Z,100258.94
2023-01-09T23:31:15.579Z,100270.91
2023-01-09T23:33:42.532Z,100270.19
2023-01-09T23:36:09.635Z,100275.69
2023-01-09T23:38:36.500Z,100278.50
2023-01-09T23:41:03.336Z,100290.88
2023-01-09T23:43:30.144Z,100295.34
2023-01-09T23:45:56.967Z,100296.25
2023-01-09T23:48:26.166Z,100303.88
2023-01-09T23:50:56.530Z,100314.44
2023-01-09T23:53:23.694Z,100315.31
2023-01-09T23:55:56.746Z,100324.75
2023-01-09T23:58:24.211Z,100324.81
